Mary Alice — WCX9570 — position and weather

sailwx.info

Track history (hours):
 
Tides and Currents Weather Stations Pressure Air Temp Water Temp Dewpoint Dewpoint Depression Visibility Wind Speed Wind Dir Waves Ship Positions

Mary Alice

Owner: Donjon Marine Co., Inc., HILLSIDE, NJ. More information available from US FCC via Universal Licensing System and Coast Guard Vessel Documentation Center.

Last reported at 2016-Jun-30 11:10 UTC. Time now 2016-Jun-30 14:12 UTC.
Position N 40°29' W 073°60'.

Length 21 m; draft 4.8 m.

Type: Towing. MMSI: 366744020.

Date/timePositionNaut miles runAvg speedWind from/ knotsBaromVisibWave heightAir tempDewpointWater temp
2016-Jun-30 11:10N 40°29' W 073°60'3 0.4
2016-Jun-30 04:22N 40°28' W 074°03'2 2.4
2016-Jun-30 03:25N 40°29' W 073°60'2 0.6
2016-Jun-30 00:25N 40°28' W 074°02'2 0.4
2016-Jun-29 19:28N 40°29' W 074°00'2 1.0
2016-Jun-29 17:33N 40°28' W 074°02'2 0.4
2016-Jun-29 11:11N 40°29' W 073°60'3 2.4
2016-Jun-29 10:04N 40°28' W 074°03'0 0.5
2016-Jun-29 09:31N 40°28' W 074°03'3 0.7
2016-Jun-29 04:33N 40°29' W 073°59'0 0.1
2016-Jun-28 22:33N 40°29' W 073°60'0 0.1
2016-Jun-28 15:08N 40°29' W 074°00'0 0.0
2016-Jun-27 23:27N 40°29' W 073°60'3 0.4
2016-Jun-27 16:15N 40°28' W 074°03'0 0.1
2016-Jun-27 13:26N 40°28' W 074°03'2 2.0
2016-Jun-27 12:28N 40°29' W 074°01'6 6.4
2016-Jun-27 11:30N 40°25' W 073°54'5 5.1
2016-Jun-27 10:33N 40°22' W 073°50'10 5.2
2016-Jun-27 08:33N 40°29' W 073°60'0 0.1
2016-Jun-27 07:34N 40°29' W 073°60'4 4.3
2016-Jun-27 06:34N 40°29' W 074°05'1 0.8
2016-Jun-27 05:31N 40°29' W 074°06'1 1.4
2016-Jun-27 04:34N 40°29' W 074°05'3 3.4
2016-Jun-27 03:33N 40°30' W 074°09'3 3.2
2016-Jun-27 02:34N 40°29' W 074°05'6 6.0
2016-Jun-27 01:33N 40°28' W 073°57'8 7.4
2016-Jun-27 00:25N 40°22' W 073°50'3 3.2
2016-Jun-26 23:33N 40°23' W 073°53'7 6.6
2016-Jun-26 22:30N 40°29' W 073°59'2 2.0
2016-Jun-26 21:28N 40°29' W 074°01'1 1.2
2016-Jun-26 20:26N 40°28' W 074°01'0 0.1
2016-Jun-26 19:28N 40°27' W 074°01'0 0.0
2016-Jun-26 13:08N 40°27' W 074°01'0 0.0
2016-Jun-26 12:33N 40°27' W 074°01'2 1.9
2016-Jun-26 11:33N 40°29' W 073°59'7 7.3
2016-Jun-26 10:33N 40°24' W 073°52'7 2.7
2016-Jun-26 08:07N 40°28' W 073°58'3 5.7
2016-Jun-26 07:33N 40°28' W 074°02'2 2.5
2016-Jun-26 06:33N 40°29' W 073°59'3 2.6
2016-Jun-26 05:23N 40°28' W 074°03'3 2.8
2016-Jun-26 04:26N 40°29' W 073°60'8 8.9
2016-Jun-26 03:33N 40°24' W 073°52'8 2.7
2016-Jun-26 00:32N 40°29' W 074°01'2 1.8
2016-Jun-25 23:33N 40°28' W 074°03'0 0.2
2016-Jun-25 22:31N 40°28' W 074°03'1 0.7
2016-Jun-25 21:33N 40°29' W 074°04'1 1.0
2016-Jun-25 20:32N 40°29' W 074°05'4 0.5
2016-Jun-25 13:22N 40°29' W 073°60'3 3.2
2016-Jun-25 12:31N 40°28' W 074°03'0 0.1
2016-Jun-25 08:03N 40°28' W 074°03'1 0.5
2016-Jun-25 06:31N 40°29' W 074°04'1 0.1
2016-Jun-24 21:31N 40°28' W 074°02'2 0.3
2016-Jun-24 15:14N 40°29' W 073°60'2 2.0
2016-Jun-24 14:03N 40°28' W 074°03'3 3.4
2016-Jun-24 13:13N 40°29' W 073°59'1 0.1
2016-Jun-24 07:31N 40°29' W 073°60'0 0.0
2016-Jun-24 00:06N 40°29' W 073°60'0 0.3
2016-Jun-23 23:23N 40°29' W 073°60'0 0.1
2016-Jun-23 22:22N 40°29' W 073°60'4 3.1
2016-Jun-23 21:03N 40°33' W 074°02'611.9
2016-Jun-23 20:33N 40°38' W 074°04'5 5.3
2016-Jun-23 19:33N 40°42' W 074°09'0 0.0
2016-Jun-23 18:33N 40°42' W 074°09'0 0.0
2016-Jun-23 17:33N 40°42' W 074°09'0 0.0
2016-Jun-23 16:33N 40°42' W 074°09'0 0.0
2016-Jun-23 15:33N 40°42' W 074°09'0 0.0
2016-Jun-23 14:32N 40°42' W 074°09'0 0.0
2016-Jun-23 13:33N 40°42' W 074°09'0 0.0
2016-Jun-23 12:31N 40°42' W 074°09'0 0.0
2016-Jun-23 09:26N 40°42' W 074°09'3 3.9
2016-Jun-23 08:33N 40°39' W 074°07'0 0.0
2016-Jun-23 07:33N 40°39' W 074°07'0 0.0
2016-Jun-23 05:33N 40°39' W 074°07'3 2.7
2016-Jun-23 04:33N 40°41' W 074°08'3 3.5
2016-Jun-23 03:33N 40°39' W 074°05'12 0.7
2016-Jun-22 10:05N 40°27' W 074°01'2 3.0
2016-Jun-22 09:31N 40°28' W 074°03'1 0.0
2016-Jun-21 06:31N 40°29' W 074°02'2 0.4
2016-Jun-21 01:26N 40°29' W 073°59'3 2.7
2016-Jun-21 00:10N 40°28' W 074°03'0 0.3
2016-Jun-20 22:33N 40°28' W 074°03'5 2.6
2016-Jun-20 20:33N 40°27' W 073°56'2 0.8
2016-Jun-20 17:21N 40°29' W 073°59'3 1.5
2016-Jun-20 15:24N 40°28' W 074°03'9 2.8
2016-Jun-20 12:21N 40°25' W 073°53'  
Track history (hours):
 
Tides and Currents Weather Stations Pressure Air Temp Water Temp Dewpoint Dewpoint Depression Visibility Wind Speed Wind Dir Waves Ship Positions

Mary Alice

Owner: Donjon Marine Co., Inc., HILLSIDE, NJ. More information available from US FCC via Universal Licensing System and Coast Guard Vessel Documentation Center.

Last reported at 2016-Jun-30 11:10 UTC. Time now 2016-Jun-30 14:12 UTC.
Position N 40°29' W 073°60'.

Length 21 m; draft 4.8 m.

Type: Towing. MMSI: 366744020.

Date/timePositionNaut miles runAvg speedWind from/ knotsBaromVisibWave heightAir tempDewpointWater temp
2016-Jun-30 11:10N 40°29' W 073°60'3 0.4
2016-Jun-30 04:22N 40°28' W 074°03'2 2.4
2016-Jun-30 03:25N 40°29' W 073°60'2 0.6
2016-Jun-30 00:25N 40°28' W 074°02'2 0.4
2016-Jun-29 19:28N 40°29' W 074°00'2 1.0
2016-Jun-29 17:33N 40°28' W 074°02'2 0.4
2016-Jun-29 11:11N 40°29' W 073°60'3 2.4
2016-Jun-29 10:04N 40°28' W 074°03'0 0.5
2016-Jun-29 09:31N 40°28' W 074°03'3 0.7
2016-Jun-29 04:33N 40°29' W 073°59'0 0.1
2016-Jun-28 22:33N 40°29' W 073°60'0 0.1
2016-Jun-28 15:08N 40°29' W 074°00'0 0.0
2016-Jun-27 23:27N 40°29' W 073°60'3 0.4
2016-Jun-27 16:15N 40°28' W 074°03'0 0.1
2016-Jun-27 13:26N 40°28' W 074°03'2 2.0
2016-Jun-27 12:28N 40°29' W 074°01'6 6.4
2016-Jun-27 11:30N 40°25' W 073°54'5 5.1
2016-Jun-27 10:33N 40°22' W 073°50'10 5.2
2016-Jun-27 08:33N 40°29' W 073°60'0 0.1
2016-Jun-27 07:34N 40°29' W 073°60'4 4.3
2016-Jun-27 06:34N 40°29' W 074°05'1 0.8
2016-Jun-27 05:31N 40°29' W 074°06'1 1.4
2016-Jun-27 04:34N 40°29' W 074°05'3 3.4
2016-Jun-27 03:33N 40°30' W 074°09'3 3.2
2016-Jun-27 02:34N 40°29' W 074°05'6 6.0
2016-Jun-27 01:33N 40°28' W 073°57'8 7.4
2016-Jun-27 00:25N 40°22' W 073°50'3 3.2
2016-Jun-26 23:33N 40°23' W 073°53'7 6.6
2016-Jun-26 22:30N 40°29' W 073°59'2 2.0
2016-Jun-26 21:28N 40°29' W 074°01'1 1.2
2016-Jun-26 20:26N 40°28' W 074°01'0 0.1
2016-Jun-26 19:28N 40°27' W 074°01'0 0.0
2016-Jun-26 13:08N 40°27' W 074°01'0 0.0
2016-Jun-26 12:33N 40°27' W 074°01'2 1.9
2016-Jun-26 11:33N 40°29' W 073°59'7 7.3
2016-Jun-26 10:33N 40°24' W 073°52'7 2.7
2016-Jun-26 08:07N 40°28' W 073°58'3 5.7
2016-Jun-26 07:33N 40°28' W 074°02'2 2.5
2016-Jun-26 06:33N 40°29' W 073°59'3 2.6
2016-Jun-26 05:23N 40°28' W 074°03'3 2.8
2016-Jun-26 04:26N 40°29' W 073°60'8 8.9
2016-Jun-26 03:33N 40°24' W 073°52'8 2.7
2016-Jun-26 00:32N 40°29' W 074°01'2 1.8
2016-Jun-25 23:33N 40°28' W 074°03'0 0.2
2016-Jun-25 22:31N 40°28' W 074°03'1 0.7
2016-Jun-25 21:33N 40°29' W 074°04'1 1.0
2016-Jun-25 20:32N 40°29' W 074°05'4 0.5
2016-Jun-25 13:22N 40°29' W 073°60'3 3.2
2016-Jun-25 12:31N 40°28' W 074°03'0 0.1
2016-Jun-25 08:03N 40°28' W 074°03'1 0.5
2016-Jun-25 06:31N 40°29' W 074°04'1 0.1
2016-Jun-24 21:31N 40°28' W 074°02'2 0.3
2016-Jun-24 15:14N 40°29' W 073°60'2 2.0
2016-Jun-24 14:03N 40°28' W 074°03'3 3.4
2016-Jun-24 13:13N 40°29' W 073°59'1 0.1
2016-Jun-24 07:31N 40°29' W 073°60'0 0.0
2016-Jun-24 00:06N 40°29' W 073°60'0 0.3
2016-Jun-23 23:23N 40°29' W 073°60'0 0.1
2016-Jun-23 22:22N 40°29' W 073°60'4 3.1
2016-Jun-23 21:03N 40°33' W 074°02'611.9
2016-Jun-23 20:33N 40°38' W 074°04'5 5.3
2016-Jun-23 19:33N 40°42' W 074°09'0 0.0
2016-Jun-23 18:33N 40°42' W 074°09'0 0.0
2016-Jun-23 17:33N 40°42' W 074°09'0 0.0
2016-Jun-23 16:33N 40°42' W 074°09'0 0.0
2016-Jun-23 15:33N 40°42' W 074°09'0 0.0
2016-Jun-23 14:32N 40°42' W 074°09'0 0.0
2016-Jun-23 13:33N 40°42' W 074°09'0 0.0
2016-Jun-23 12:31N 40°42' W 074°09'0 0.0
2016-Jun-23 09:26N 40°42' W 074°09'3 3.9
2016-Jun-23 08:33N 40°39' W 074°07'0 0.0
2016-Jun-23 07:33N 40°39' W 074°07'0 0.0
2016-Jun-23 05:33N 40°39' W 074°07'3 2.7
2016-Jun-23 04:33N 40°41' W 074°08'3 3.5
2016-Jun-23 03:33N 40°39' W 074°05'12 0.7
2016-Jun-22 10:05N 40°27' W 074°01'2 3.0
2016-Jun-22 09:31N 40°28' W 074°03'1 0.0
2016-Jun-21 06:31N 40°29' W 074°02'2 0.4
2016-Jun-21 01:26N 40°29' W 073°59'3 2.7
2016-Jun-21 00:10N 40°28' W 074°03'0 0.3
2016-Jun-20 22:33N 40°28' W 074°03'5 2.6
2016-Jun-20 20:33N 40°27' W 073°56'2 0.8
2016-Jun-20 17:21N 40°29' W 073°59'3 1.5
2016-Jun-20 15:24N 40°28' W 074°03'9 2.8
2016-Jun-20 12:21N 40°25' W 073°53'  

Dump ship's entire track history